Terminal Aerodrome Forecast
Issued by NWS Caribou, ME

Home | Current Version | Previous Version | Text Only | Print | Product List | Glossary On
Versions: 1 2 3 4 5 6 7 8 9 10 11 12 13 14 15 16 17 18 19
000
FTUS41 KCAR 291930 AAB
TAFCAR
TAF AMD
KCAR 291930Z 2920/3018 32018G28KT P6SM SCT035 BKN050
     FM292100 33012G19KT P6SM SCT110
     FM292300 32007KT P6SM FEW250
     FM300600 VRB03KT P6SM FEW250=

USA.gov is the U.S. government's official web portal to all federal, state and local government web resources and services.